Southern Sonoma County Latest

20 Stations

15 Minute Data
as of 9/6/26 1:47 AM PDT
Station Date Time Temp (°F) RH (%) Dew Pt (°F) Wind Spd (mph) Wind Dir (°) Wind Gust (mph) Latest Rain (In) Daily Rain (In) Daily Min Temp (°F) Daily Max Temp (°F)
Upper Rincon Valley 9/6/26 0145 50.8   1.1 86   6 46.8   2.8 2.5   1.3 N | 6 3.1   0.9 0.00 0.00 50.5   0.9 51.5   0.8
Lower Bennett Valley 9/6/26 0145 48.5   2.1 100   0 48.5   2.1 3.1   2.1 SSW | 212 4.0   1.4 0.00 0.00 47.4   1.4 49.0   2.0
Kenwood (Wildwood) 9/6/26 0145 45.9   5.1 95   1 44.6   4.8 2.4   1.2 NNE | 12 3.4   1.1 0.00 0.00 45.5   5.0 46.8   5.2
Crane Creek (Ranch 62) 9/6/26 0145 51.6   0.6 95   0 50.4   0.4 1.1   0.4 NE | 50 2.4   0.2 0.00 0.00 51.3   0.4 52.4   0.3
Rohnert Park-West (Stony Point) 9/6/26 0145 45.2   2.2 95   1 43.9   1.9 0.0   0.0 N | 0 0.0   0.0 0.00 0.00 45.0   2.5 46.6   2.0
Rice-Spivak Vineyard 9/6/26 0145 42.2   1.6 - - - - - - - 41.9   1.7 43.7   0.9
Cartograph Wines Base 9/6/26 0145 51.0   2.6 96   1 49.8   2.8 0.8   0.2 SE | 124 2.0   0.4 0.00 0.00 50.8   2.2 52.6   1.3
Cartograph Wines Remote 9/6/26 0145 47.2   2.6 - - - - - - - 47.2   2.6 48.6   2.0
Penngrove (Asellus) 9/6/26 0145 46.5   2.0 95   0 45.3   2.0 0.3   0.1 W | 279 1.2   0.2 0.00 0.00 46.3   1.9 47.7   2.5
Sonoma Valley (Bedrock) 9/6/26 0145 47.7   2.6 90   2 44.9   3.2 - - - 0.00 0.00 46.8   3.3 48.1   3.6
Sonoma-West (Arnold) 9/6/26 0145 47.7   0.9 90   2 45.0   1.6 0.5   0.3 W | 263 1.7   0.4 0.00 0.00 47.3   1.1 49.1   0.5
Sonoma Valley HS 9/6/26 0145 50.9   0.4 98   1 50.4   0.0 1.1   0.7 SW | 225 2.1   0.7 0.00 0.00 50.8   0.1 51.6   0.5
Sonoma East (Bundschu01) 9/6/26 0145 48.8   0.2 91   1 46.4   0.1 1.0   0.7 N | 353 3.3   1.8 0.00 0.00 48.2   0.1 50.9   1.6
Sonoma-SE (Napoli) 9/6/26 0145 50.7   0.4 90   1 47.9   0.1 0.3   0.3 NNE | 15 2.1   0.3 0.00 0.00 49.9   0.2 53.2   2.4
Schellville (Sasaki) 2/7/26 1900 53.4   2.2 88   10 49.9   1.0 3.3   1.8 SW | 225 5.8   4.0 0.00 0.00 47.0   0.8 62.8   8.4
Petaluma (Ranch 10) 9/6/26 0145 46.5   4.0 93   0 44.6   4.0 0.0   0.0 ESE | 110 0.7   0.1 0.00 0.00 46.4   3.8 47.6   4.7
Carneros (Ranch 71) 9/6/26 0145 54.2   0.6 90   1 51.2   0.3 0.3   0.3 WSW | 248 2.4   2.4 0.00 0.00 54.0   0.7 55.2   0.6
Ricci Vineyards (Carneros) 9/6/26 0145 51.0   0.2 93   1 49.0   0.0 0.9   0.6 W | 271 3.7   2.0 0.00 0.00 50.4   0.3 52.7   0.1
Carneros Upper (Ranch 81) 9/6/26 0145 55.1   0.5 87   0 51.4   0.4 6.9   6.4 WSW | 254 8.6   5.0 - - 54.8   0.4 55.3   0.5
Carneros Lower (Ranch 81) 9/6/26 0130 52.8   1.2 92   2 50.4   1.9 0.1   0.1 SE | 126 1.2   0.4 0.00 0.00 52.1   0.5 53.4   0.6
Max     55.1 100 51.4 6.9 - 8.6 0.00 0.00 54.8 55.3
Avg     49.2 93 47.7 1.3 - 2.6 0.00 - - -
Min     42.2 86 43.9 0.0 - 0.0 0.00 0.00 41.9 43.7